Terminal Aerodrome Forecast
Issued by NWS

Home | Current Version | Previous Version | Text Only | Print | Product List | Glossary Off
Versions: 1 2 3 4 5 6 7 8 9 10 11 12 13 14 15 16 17

240
FTUS43 KIWX 091720
TAFSBN
TAF
KSBN 091720Z 0918/1018 28011KT 6SM -SHSN BKN035
      TEMPO 0918/0922 2SM -SHSN OVC015
     FM101000 25007KT P6SM VCSH OVC025
     FM101400 25008KT P6SM OVC035=

USA.gov is the U.S. government's official web portal to all federal, state and local government web resources and services.